createdAt,value
2018-07-15T00:00:21.712Z,63.38
2018-07-15T00:02:50.026Z,63.25
2018-07-15T00:05:18.352Z,63.55
2018-07-15T00:07:46.671Z,62.88
2018-07-15T00:10:15.010Z,63.72
2018-07-15T00:12:43.334Z,63.92
2018-07-15T00:15:11.646Z,64.25
2018-07-15T00:17:39.960Z,63.81
2018-07-15T00:20:08.305Z,63.62
2018-07-15T00:22:36.653Z,63.58
2018-07-15T00:25:04.977Z,63.45
2018-07-15T00:27:33.297Z,64.15
2018-07-15T00:30:01.614Z,64.86
2018-07-15T00:32:29.931Z,63.88
2018-07-15T00:34:58.237Z,64.14
2018-07-15T00:37:26.565Z,64.55
2018-07-15T00:39:54.901Z,64.30
2018-07-15T00:42:23.218Z,64.53
2018-07-15T00:44:51.536Z,64.96
2018-07-15T00:47:19.862Z,64.65
2018-07-15T00:49:48.169Z,65.36
2018-07-15T00:52:16.492Z,65.67
2018-07-15T00:54:44.828Z,65.61
2018-07-15T00:57:13.155Z,65.62
2018-07-15T00:59:41.466Z,66.11
2018-07-15T01:02:09.779Z,65.96
2018-07-15T01:04:38.123Z,66.11
2018-07-15T01:07:06.445Z,67.71
2018-07-15T01:09:34.790Z,66.81
2018-07-15T01:12:03.136Z,66.18
2018-07-15T01:14:31.472Z,67.06
2018-07-15T01:16:59.780Z,66.67
2018-07-15T01:19:28.120Z,66.67
2018-07-15T01:21:56.420Z,66.66
2018-07-15T01:24:24.727Z,66.87
2018-07-15T01:26:53.038Z,67.71
2018-07-15T01:29:21.363Z,67.91
2018-07-15T01:31:49.689Z,67.81
2018-07-15T01:34:18.077Z,68.69
2018-07-15T01:36:46.404Z,67.60
2018-07-15T01:39:14.729Z,67.47
2018-07-15T01:41:43.227Z,67.91
2018-07-15T01:44:11.545Z,69.02
2018-07-15T01:46:39.929Z,67.94
2018-07-15T01:49:08.354Z,69.80
2018-07-15T01:51:36.679Z,69.13
2018-07-15T01:54:05.055Z,68.87
2018-07-15T01:56:33.383Z,69.00
2018-07-15T01:59:01.807Z,70.83
2018-07-15T02:01:30.141Z,69.50
2018-07-15T02:03:58.458Z,70.08
2018-07-15T02:06:26.867Z,69.15
2018-07-15T02:08:55.208Z,69.48
2018-07-15T02:11:23.541Z,69.31
2018-07-15T02:13:51.919Z,70.50
2018-07-15T02:16:20.245Z,71.17
2018-07-15T02:18:48.559Z,71.38
2018-07-15T02:21:16.938Z,70.85
2018-07-15T02:23:45.281Z,71.52
2018-07-15T02:26:13.621Z,71.32
2018-07-15T02:28:41.927Z,71.65
2018-07-15T02:31:10.243Z,72.15
2018-07-15T02:33:39.584Z,72.47
2018-07-15T02:36:07.929Z,71.46
2018-07-15T02:38:36.574Z,71.85
2018-07-15T02:41:04.907Z,71.29
2018-07-15T02:43:33.224Z,72.02
2018-07-15T02:46:01.552Z,71.96
2018-07-15T02:48:29.893Z,71.62
2018-07-15T02:50:58.206Z,72.47
2018-07-15T02:53:26.536Z,72.29
2018-07-15T02:55:54.878Z,72.38
2018-07-15T02:58:23.315Z,73.28
2018-07-15T03:00:51.667Z,71.99
2018-07-15T03:03:20.031Z,72.96
2018-07-15T03:05:48.343Z,72.03
2018-07-15T03:08:16.658Z,74.54
2018-07-15T03:10:45.000Z,72.71
2018-07-15T03:13:13.312Z,72.71
2018-07-15T03:15:41.652Z,73.20
2018-07-15T03:18:09.982Z,73.11
2018-07-15T03:20:38.309Z,72.10
2018-07-15T03:23:06.782Z,72.83
2018-07-15T03:25:35.101Z,73.60
2018-07-15T03:28:03.410Z,72.69
2018-07-15T03:30:31.729Z,73.35
2018-07-15T03:33:00.069Z,74.07
2018-07-15T03:35:28.374Z,72.43
2018-07-15T03:37:56.692Z,73.71
2018-07-15T03:40:25.043Z,73.90
2018-07-15T03:42:53.353Z,73.49
2018-07-15T03:45:21.652Z,74.67
2018-07-15T03:47:49.988Z,74.69
2018-07-15T03:50:18.338Z,74.21
2018-07-15T03:52:46.664Z,74.09
2018-07-15T03:55:15.027Z,74.41
2018-07-15T03:57:43.366Z,73.70
2018-07-15T04:00:11.713Z,75.13
2018-07-15T04:02:40.033Z,73.75
2018-07-15T04:05:08.357Z,73.89
2018-07-15T04:07:36.708Z,74.23
2018-07-15T04:10:05.331Z,73.67
2018-07-15T04:12:33.666Z,74.48
2018-07-15T04:15:01.980Z,73.66
2018-07-15T04:17:30.325Z,73.80
2018-07-15T04:19:58.692Z,73.69
2018-07-15T04:22:27.020Z,73.45
2018-07-15T04:24:55.380Z,72.89
2018-07-15T04:27:23.675Z,72.91
2018-07-15T04:29:51.993Z,73.05
2018-07-15T04:32:20.335Z,73.17
2018-07-15T04:34:48.660Z,72.89
2018-07-15T04:37:17.008Z,72.46
2018-07-15T04:39:45.352Z,72.97
2018-07-15T04:42:13.697Z,72.98
2018-07-15T04:44:42.024Z,73.57
2018-07-15T04:47:10.351Z,73.55
2018-07-15T04:49:38.665Z,73.24
2018-07-15T04:52:07.011Z,73.22
2018-07-15T04:54:35.370Z,73.37
2018-07-15T04:57:03.716Z,72.79
2018-07-15T04:59:32.058Z,72.75
2018-07-15T05:02:00.457Z,72.54
2018-07-15T05:04:28.767Z,73.19
2018-07-15T05:06:57.107Z,72.55
2018-07-15T05:09:25.446Z,73.04
2018-07-15T05:11:53.757Z,72.96
2018-07-15T05:14:22.117Z,72.23
2018-07-15T05:16:50.441Z,72.21
2018-07-15T05:19:18.760Z,72.40
2018-07-15T05:21:47.084Z,72.42
2018-07-15T05:24:15.463Z,71.54
2018-07-15T05:26:43.799Z,71.48
2018-07-15T05:29:12.148Z,70.64
2018-07-15T05:31:40.482Z,70.45
2018-07-15T05:34:08.809Z,70.70
2018-07-15T05:36:37.139Z,70.17
2018-07-15T05:39:05.940Z,69.33
2018-07-15T05:41:34.279Z,68.81
2018-07-15T05:44:02.617Z,68.65
2018-07-15T05:46:30.977Z,68.69
2018-07-15T05:48:59.312Z,68.32
2018-07-15T05:51:27.644Z,67.84
2018-07-15T05:53:55.986Z,67.11
2018-07-15T05:56:24.295Z,66.79
2018-07-15T05:58:52.606Z,67.18
2018-07-15T06:01:20.948Z,65.48
2018-07-15T06:03:49.284Z,65.92
2018-07-15T06:06:17.617Z,65.84
2018-07-15T06:08:45.936Z,65.65
2018-07-15T06:11:14.248Z,64.73
2018-07-15T06:13:42.651Z,64.63
2018-07-15T06:16:11.024Z,64.48
2018-07-15T06:18:39.354Z,64.98
2018-07-15T06:21:07.687Z,62.76
2018-07-15T06:23:36.017Z,63.59
2018-07-15T06:26:04.362Z,64.10
2018-07-15T06:28:32.753Z,63.61
2018-07-15T06:31:01.113Z,62.66
2018-07-15T06:33:29.463Z,62.38
2018-07-15T06:35:57.802Z,60.29
2018-07-15T06:38:26.147Z,59.67
2018-07-15T06:40:54.464Z,57.65
2018-07-15T06:43:22.808Z,55.67
2018-07-15T06:45:51.120Z,56.15
2018-07-15T06:48:19.566Z,55.15
2018-07-15T06:50:47.868Z,53.20
2018-07-15T06:53:16.481Z,51.99
2018-07-15T06:55:44.838Z,52.07
2018-07-15T06:58:13.169Z,50.20
2018-07-15T07:00:41.688Z,47.44
2018-07-15T07:03:10.083Z,49.41
2018-07-15T07:05:38.448Z,47.18
2018-07-15T07:08:06.807Z,46.02
2018-07-15T07:10:35.162Z,45.90
2018-07-15T07:13:03.499Z,45.49
2018-07-15T07:15:31.843Z,44.69
2018-07-15T07:18:00.177Z,43.77
2018-07-15T07:20:28.567Z,40.85
2018-07-15T07:22:56.915Z,41.48
2018-07-15T07:25:25.280Z,41.73
2018-07-15T07:27:53.648Z,41.75
2018-07-15T07:30:22.053Z,41.26
2018-07-15T07:32:50.394Z,36.91
2018-07-15T07:35:18.789Z,37.74
2018-07-15T07:37:47.152Z,38.60
2018-07-15T07:40:15.535Z,38.42
2018-07-15T07:42:43.906Z,36.83
2018-07-15T07:45:12.253Z,38.12
2018-07-15T07:47:40.597Z,36.51
2018-07-15T07:50:08.938Z,35.41
2018-07-15T07:52:37.252Z,35.43
2018-07-15T07:55:05.828Z,36.23
2018-07-15T07:57:34.165Z,35.62
2018-07-15T08:00:02.502Z,36.67
2018-07-15T08:02:30.924Z,35.08
2018-07-15T08:04:59.240Z,35.43
2018-07-15T08:07:27.596Z,34.16
2018-07-15T08:09:55.913Z,34.13
2018-07-15T08:12:24.224Z,32.23
2018-07-15T08:14:52.579Z,32.58
2018-07-15T08:17:20.941Z,32.84
2018-07-15T08:19:49.509Z,33.81
2018-07-15T08:22:17.837Z,32.96
2018-07-15T08:24:46.150Z,33.68
2018-07-15T08:27:14.481Z,32.72
2018-07-15T08:29:54.304Z,32.73
2018-07-15T08:32:22.636Z,33.13
2018-07-15T08:34:51.000Z,34.68
2018-07-15T08:37:19.333Z,33.92
2018-07-15T08:39:47.693Z,33.67
2018-07-15T08:42:16.036Z,31.97
2018-07-15T08:44:44.378Z,33.50
2018-07-15T08:47:12.726Z,32.71
2018-07-15T08:49:41.034Z,33.54
2018-07-15T08:52:09.428Z,33.21
2018-07-15T08:54:37.712Z,33.83
2018-07-15T08:57:06.033Z,33.11
2018-07-15T08:59:34.358Z,31.61
2018-07-15T09:02:02.697Z,31.54
2018-07-15T09:04:31.022Z,32.04
2018-07-15T09:06:59.344Z,32.50
2018-07-15T09:09:27.658Z,31.22
2018-07-15T09:11:56.001Z,30.83
2018-07-15T09:14:24.351Z,31.61
2018-07-15T09:16:52.981Z,30.48
2018-07-15T09:19:21.328Z,31.71
2018-07-15T09:21:49.649Z,29.27
2018-07-15T09:24:18.006Z,30.49
2018-07-15T09:26:46.345Z,31.00
2018-07-15T09:29:14.707Z,29.40
2018-07-15T09:31:43.035Z,29.33
2018-07-15T09:34:11.349Z,26.87
2018-07-15T09:36:39.673Z,27.95
2018-07-15T09:39:08.273Z,26.71
2018-07-15T09:41:36.621Z,26.90
2018-07-15T09:44:04.932Z,27.62
2018-07-15T09:46:33.260Z,26.72
2018-07-15T09:49:01.581Z,27.47
2018-07-15T09:51:29.896Z,27.65
2018-07-15T09:53:58.278Z,25.26
2018-07-15T09:56:26.587Z,27.08
2018-07-15T09:58:54.926Z,24.23
2018-07-15T10:01:23.247Z,26.74
2018-07-15T10:03:51.580Z,25.73
2018-07-15T10:06:19.893Z,25.37
2018-07-15T10:08:48.212Z,24.98
2018-07-15T10:11:16.596Z,25.31
2018-07-15T10:13:44.925Z,25.91
2018-07-15T10:16:13.251Z,25.05
2018-07-15T10:18:41.651Z,25.04
2018-07-15T10:21:10.009Z,26.17
2018-07-15T10:23:38.337Z,26.26
2018-07-15T10:26:06.680Z,25.38
2018-07-15T10:28:35.008Z,24.99
2018-07-15T10:31:03.403Z,25.39
2018-07-15T10:33:31.715Z,25.84
2018-07-15T10:36:00.069Z,25.48
2018-07-15T10:38:28.388Z,25.16
2018-07-15T10:40:56.724Z,26.01
2018-07-15T10:43:25.074Z,26.19
2018-07-15T10:45:53.410Z,25.98
2018-07-15T10:48:21.867Z,25.53
2018-07-15T10:50:50.300Z,26.31
2018-07-15T10:53:18.613Z,25.99
2018-07-15T10:55:46.944Z,26.46
2018-07-15T10:58:15.355Z,26.60
2018-07-15T11:00:43.682Z,28.22
2018-07-15T11:03:12.040Z,27.32
2018-07-15T11:05:40.384Z,28.02
2018-07-15T11:08:08.719Z,29.76
2018-07-15T11:10:37.044Z,29.65
2018-07-15T11:13:05.489Z,30.96
2018-07-15T11:15:33.828Z,30.83
2018-07-15T11:18:02.148Z,33.70
2018-07-15T11:20:30.493Z,31.72
2018-07-15T11:22:58.850Z,32.95
2018-07-15T11:25:27.203Z,35.85
2018-07-15T11:27:55.552Z,33.37
2018-07-15T11:30:23.908Z,35.53
2018-07-15T11:32:52.248Z,34.14
2018-07-15T11:35:20.611Z,35.22
2018-07-15T11:37:48.959Z,34.67
2018-07-15T11:40:17.271Z,34.67
2018-07-15T11:42:46.414Z,35.62
2018-07-15T11:45:14.760Z,35.32
2018-07-15T11:47:43.099Z,36.71
2018-07-15T11:50:11.433Z,36.47
2018-07-15T11:52:39.844Z,35.88
2018-07-15T11:55:08.221Z,35.46
2018-07-15T11:57:36.904Z,36.19
2018-07-15T12:00:05.762Z,38.43
2018-07-15T12:02:34.088Z,36.84
2018-07-15T12:05:02.435Z,38.81
2018-07-15T12:07:30.805Z,38.46
2018-07-15T12:09:59.152Z,39.23
2018-07-15T12:12:27.489Z,39.57
2018-07-15T12:14:55.852Z,39.65
2018-07-15T12:17:24.201Z,39.26
2018-07-15T12:19:52.537Z,40.02
2018-07-15T12:22:20.873Z,40.92
2018-07-15T12:24:49.230Z,39.07
2018-07-15T12:27:17.576Z,41.45
2018-07-15T12:29:45.910Z,41.01
2018-07-15T12:32:14.233Z,39.78
2018-07-15T12:34:42.579Z,41.69
2018-07-15T12:37:10.913Z,40.56
2018-07-15T12:39:39.264Z,40.76
2018-07-15T12:42:07.852Z,40.16
2018-07-15T12:44:36.173Z,40.44
2018-07-15T12:47:04.530Z,40.67
2018-07-15T12:49:32.855Z,40.58
2018-07-15T12:52:01.262Z,40.69
2018-07-15T12:54:29.543Z,40.77
2018-07-15T12:56:57.882Z,41.29
2018-07-15T12:59:26.224Z,41.29
2018-07-15T13:01:54.562Z,41.18
2018-07-15T13:04:22.892Z,41.48
2018-07-15T13:06:51.231Z,41.46
2018-07-15T13:09:19.580Z,42.12
2018-07-15T13:11:47.913Z,42.01
2018-07-15T13:14:16.281Z,41.03
2018-07-15T13:16:44.629Z,41.64
2018-07-15T13:19:12.959Z,41.96
2018-07-15T13:21:41.298Z,43.27
2018-07-15T13:24:09.635Z,43.27
2018-07-15T13:26:37.953Z,43.80
2018-07-15T13:29:06.309Z,42.51
2018-07-15T13:31:34.652Z,42.11
2018-07-15T13:34:02.988Z,43.38
2018-07-15T13:36:31.328Z,42.56
2018-07-15T13:38:59.692Z,42.31
2018-07-15T13:41:28.079Z,42.29
2018-07-15T13:43:56.394Z,42.02
2018-07-15T13:46:24.757Z,42.02
2018-07-15T13:48:53.094Z,42.25
2018-07-15T13:51:21.415Z,42.32
2018-07-15T13:53:49.760Z,41.79
2018-07-15T13:56:18.096Z,43.11
2018-07-15T13:58:46.475Z,42.03
2018-07-15T14:01:14.826Z,42.74
2018-07-15T14:03:43.151Z,42.39
2018-07-15T14:06:11.467Z,43.21
2018-07-15T14:08:39.910Z,42.29
2018-07-15T14:11:08.269Z,42.24
2018-07-15T14:13:36.619Z,41.60
2018-07-15T14:16:04.997Z,42.12
2018-07-15T14:18:33.370Z,42.24
2018-07-15T14:21:01.780Z,42.13
2018-07-15T14:23:30.132Z,41.91
2018-07-15T14:25:58.495Z,42.92
2018-07-15T14:28:26.837Z,42.26
2018-07-15T14:30:55.188Z,43.34
2018-07-15T14:33:23.536Z,42.61
2018-07-15T14:35:51.867Z,42.20
2018-07-15T14:38:20.207Z,43.14
2018-07-15T14:40:48.564Z,42.85
2018-07-15T14:43:16.899Z,42.45
2018-07-15T14:45:47.109Z,42.70
2018-07-15T14:48:15.465Z,42.67
2018-07-15T14:50:44.308Z,42.88
2018-07-15T14:53:12.635Z,42.60
2018-07-15T14:55:41.083Z,42.89
2018-07-15T14:58:10.834Z,43.02
2018-07-15T15:00:39.204Z,42.72
2018-07-15T15:03:07.753Z,42.81
2018-07-15T15:05:36.120Z,43.21
2018-07-15T15:08:04.512Z,43.44
2018-07-15T15:10:32.948Z,42.64
2018-07-15T15:13:01.940Z,43.19
2018-07-15T15:15:30.542Z,43.16
2018-07-15T15:17:58.916Z,43.42
2018-07-15T15:20:27.271Z,43.04
2018-07-15T15:22:55.690Z,42.80
2018-07-15T15:25:24.071Z,44.23
2018-07-15T15:27:52.428Z,44.18
2018-07-15T15:30:20.766Z,43.56
2018-07-15T15:32:49.124Z,43.23
2018-07-15T15:35:17.473Z,43.77
2018-07-15T15:37:45.917Z,45.06
2018-07-15T15:40:14.289Z,43.24
2018-07-15T15:42:42.618Z,42.79
2018-07-15T15:45:10.988Z,42.55
2018-07-15T15:47:39.398Z,42.33
2018-07-15T15:50:07.782Z,42.45
2018-07-15T15:52:36.101Z,42.28
2018-07-15T15:55:04.548Z,42.34
2018-07-15T15:57:33.260Z,42.66
2018-07-15T16:00:01.611Z,43.26
2018-07-15T16:02:29.990Z,43.32
2018-07-15T16:04:58.329Z,43.45
2018-07-15T16:07:26.669Z,43.41
2018-07-15T16:09:55.013Z,44.20
2018-07-15T16:12:23.321Z,43.98
2018-07-15T16:14:51.656Z,43.85
2018-07-15T16:17:19.980Z,43.97
2018-07-15T16:19:48.308Z,43.32
2018-07-15T16:22:16.660Z,43.77
2018-07-15T16:24:45.016Z,43.43
2018-07-15T16:27:13.394Z,43.27
2018-07-15T16:29:41.709Z,43.57
2018-07-15T16:32:10.052Z,43.62
2018-07-15T16:34:38.373Z,43.88
2018-07-15T16:37:06.705Z,44.15
2018-07-15T16:39:35.061Z,44.25
2018-07-15T16:42:03.392Z,44.44
2018-07-15T16:44:31.724Z,43.59
2018-07-15T16:47:00.062Z,43.72
2018-07-15T16:49:28.413Z,44.08
2018-07-15T16:51:56.748Z,43.81
2018-07-15T16:54:25.774Z,43.56
2018-07-15T16:56:54.104Z,44.39
2018-07-15T16:59:22.425Z,43.96
2018-07-15T17:01:50.736Z,44.78
2018-07-15T17:04:19.055Z,44.69
2018-07-15T17:06:47.400Z,44.29
2018-07-15T17:09:15.840Z,44.69
2018-07-15T17:11:44.157Z,44.42
2018-07-15T17:14:12.547Z,44.56
2018-07-15T17:16:40.848Z,44.53
2018-07-15T17:19:09.197Z,43.86
2018-07-15T17:21:37.544Z,43.98
2018-07-15T17:24:05.916Z,44.41
2018-07-15T17:26:34.267Z,44.65
2018-07-15T17:29:02.613Z,44.53
2018-07-15T17:31:30.948Z,44.51
2018-07-15T17:33:59.261Z,43.76
2018-07-15T17:36:27.563Z,44.21
2018-07-15T17:38:55.893Z,43.61
2018-07-15T17:41:24.228Z,43.50
2018-07-15T17:43:52.593Z,43.44
2018-07-15T17:46:20.989Z,44.26
2018-07-15T17:48:49.277Z,44.05
2018-07-15T17:51:17.744Z,44.65
2018-07-15T17:53:46.080Z,44.35
2018-07-15T17:56:14.435Z,44.61
2018-07-15T17:58:42.825Z,44.78
2018-07-15T18:01:11.188Z,45.10
2018-07-15T18:03:39.535Z,44.46
2018-07-15T18:06:07.888Z,45.41
2018-07-15T18:08:36.232Z,45.27
2018-07-15T18:11:04.576Z,44.83
2018-07-15T18:13:32.976Z,44.98
2018-07-15T18:16:01.330Z,44.97
2018-07-15T18:18:29.652Z,44.95
2018-07-15T18:20:58.018Z,44.70
2018-07-15T18:23:26.357Z,44.82
2018-07-15T18:25:54.722Z,45.23
2018-07-15T18:28:23.073Z,45.01
2018-07-15T18:30:51.429Z,44.96
2018-07-15T18:33:19.816Z,44.86
2018-07-15T18:35:48.157Z,45.65
2018-07-15T18:38:16.504Z,45.65
2018-07-15T18:40:44.821Z,46.17
2018-07-15T18:43:13.148Z,45.51
2018-07-15T18:45:41.500Z,46.22
2018-07-15T18:48:09.827Z,45.40
2018-07-15T18:50:38.155Z,46.01
2018-07-15T18:53:06.535Z,46.14
2018-07-15T18:55:35.015Z,46.61
2018-07-15T18:58:03.367Z,46.53
2018-07-15T19:00:32.009Z,46.85
2018-07-15T19:03:00.354Z,47.17
2018-07-15T19:05:28.781Z,47.00
2018-07-15T19:07:57.122Z,46.73
2018-07-15T19:10:25.574Z,47.39
2018-07-15T19:12:53.981Z,47.17
2018-07-15T19:15:22.380Z,47.30
2018-07-15T19:17:50.734Z,46.93
2018-07-15T19:20:19.080Z,47.32
2018-07-15T19:22:47.424Z,47.68
2018-07-15T19:25:15.769Z,47.29
2018-07-15T19:27:44.118Z,47.21
2018-07-15T19:30:12.462Z,48.00
2018-07-15T19:32:40.918Z,47.78
2018-07-15T19:35:09.252Z,47.64
2018-07-15T19:37:37.603Z,47.98
2018-07-15T19:40:06.100Z,48.29
2018-07-15T19:42:34.588Z,48.54
2018-07-15T19:45:02.854Z,48.04
2018-07-15T19:47:31.210Z,48.19
2018-07-15T19:49:59.588Z,48.96
2018-07-15T19:52:27.962Z,48.93
2018-07-15T19:54:56.250Z,48.78
2018-07-15T19:57:24.593Z,49.68
2018-07-15T19:59:52.894Z,49.61
2018-07-15T20:02:21.269Z,49.05
2018-07-15T20:04:49.599Z,49.78
2018-07-15T20:07:17.963Z,49.49
2018-07-15T20:09:46.296Z,50.00
2018-07-15T20:12:14.663Z,50.60
2018-07-15T20:14:42.973Z,49.98
2018-07-15T20:17:11.323Z,50.75
2018-07-15T20:19:39.636Z,50.93
2018-07-15T20:22:08.120Z,51.02
2018-07-15T20:24:36.494Z,51.48
2018-07-15T20:27:07.367Z,51.44
2018-07-15T20:29:35.743Z,50.94
2018-07-15T20:32:04.060Z,51.95
2018-07-15T20:34:32.383Z,51.54
2018-07-15T20:37:00.766Z,51.71
2018-07-15T20:39:29.103Z,52.16
2018-07-15T20:41:57.437Z,52.49
2018-07-15T20:44:25.787Z,52.51
2018-07-15T20:46:54.126Z,52.18
2018-07-15T20:49:22.444Z,52.23
2018-07-15T20:51:50.870Z,53.23
2018-07-15T20:54:19.230Z,52.56
2018-07-15T20:56:47.587Z,53.85
2018-07-15T20:59:16.076Z,53.85
2018-07-15T21:01:44.400Z,54.31
2018-07-15T21:04:12.720Z,54.44
2018-07-15T21:06:41.081Z,54.62
2018-07-15T21:09:09.864Z,54.63
2018-07-15T21:11:38.763Z,54.61
2018-07-15T21:14:07.402Z,55.63
2018-07-15T21:16:36.108Z,55.62
2018-07-15T21:19:05.177Z,55.22
2018-07-15T21:21:33.525Z,55.83
2018-07-15T21:24:01.843Z,55.93
2018-07-15T21:26:30.287Z,55.55
2018-07-15T21:28:58.685Z,56.32
2018-07-15T21:31:27.004Z,56.99
2018-07-15T21:33:55.344Z,56.48
2018-07-15T21:36:23.653Z,57.14
2018-07-15T21:38:52.343Z,57.15
2018-07-15T21:41:20.878Z,57.14
2018-07-15T21:43:49.816Z,56.83
2018-07-15T21:46:18.768Z,57.56
2018-07-15T21:48:47.942Z,57.25
2018-07-15T21:51:16.315Z,56.89
2018-07-15T21:53:44.658Z,57.41
2018-07-15T21:56:12.992Z,57.79
2018-07-15T21:58:41.341Z,57.48
2018-07-15T22:01:09.700Z,58.03
2018-07-15T22:03:38.027Z,57.70
2018-07-15T22:06:11.576Z,58.48
2018-07-15T22:08:52.226Z,58.45
2018-07-15T22:11:21.223Z,58.80
2018-07-15T22:13:50.108Z,58.73
2018-07-15T22:16:19.045Z,58.89
2018-07-15T22:18:47.946Z,58.83
2018-07-15T22:21:16.940Z,58.91
2018-07-15T22:23:45.885Z,59.77
2018-07-15T22:26:14.793Z,59.47
2018-07-15T22:28:43.715Z,59.49
2018-07-15T22:31:12.700Z,59.62
2018-07-15T22:33:41.629Z,60.05
2018-07-15T22:36:10.577Z,60.25
2018-07-15T22:38:39.468Z,60.97
2018-07-15T22:41:08.264Z,60.85
2018-07-15T22:43:37.352Z,65.31
2018-07-15T22:46:06.438Z,61.42
2018-07-15T22:48:35.527Z,61.55
2018-07-15T22:51:04.576Z,61.56
2018-07-15T22:53:33.557Z,61.32
2018-07-15T22:56:02.529Z,62.15
2018-07-15T22:58:31.430Z,61.94
2018-07-15T23:01:00.360Z,61.77
2018-07-15T23:03:29.281Z,62.72
2018-07-15T23:06:09.330Z,63.19
2018-07-15T23:08:38.261Z,62.46
2018-07-15T23:11:07.218Z,62.21
2018-07-15T23:13:36.124Z,62.27
2018-07-15T23:16:05.021Z,63.18
2018-07-15T23:18:33.999Z,62.92
2018-07-15T23:21:02.725Z,63.58
2018-07-15T23:23:31.268Z,64.33
2018-07-15T23:25:59.571Z,63.79
2018-07-15T23:28:27.893Z,63.63
2018-07-15T23:30:56.221Z,63.33
2018-07-15T23:33:24.546Z,63.46
2018-07-15T23:35:52.884Z,63.48
2018-07-15T23:38:21.182Z,63.86
2018-07-15T23:40:49.510Z,63.54
2018-07-15T23:43:17.815Z,65.05
2018-07-15T23:45:46.147Z,64.54
2018-07-15T23:48:14.473Z,64.92
2018-07-15T23:50:42.821Z,64.96
2018-07-15T23:53:11.139Z,65.05
2018-07-15T23:55:39.443Z,65.81
2018-07-15T23:58:07.776Z,66.06
